Orbital elements of FENGYUN 1C DEB
| Launched | 9 May 1999 |
| Flight ended | – |
| Launch site | Taiyuan Space Center, PRC |
| Owner | People's Republic of China |
| NORAD ID | 30325 |
| Date fetched |
Epoch osculation |
Inc. [°] |
Ecc. | RA asc node [hr] |
Arg Peri. [°] |
Mean anom [°] |
Mean motion [rev/day] |
Abs. mag |
| Date fetched |
Epoch osculation |
Inc. [°] |
Ecc. | RA asc node [hr] |
Arg Peri. [°] |
Mean anom [°] |
Mean motion [rev/day] |
Abs. mag |
| 2026 May 05 17:57 | 2026 May 05 11:31:40 | 98.7215 | 0.00158 | 9.6902 | 203.9048 | 156.1393 | 14.09156 | – |
| 2026 May 04 17:57 | 2026 Apr 30 12:14:27 | 98.7220 | 0.00155 | 9.3693 | 218.5497 | 156.1393 | 14.09156 | – |
| 2026 May 03 17:57 | 2026 Apr 30 12:14:27 | 98.7220 | 0.00155 | 9.3693 | 218.5497 | 156.1393 | 14.09156 | – |
| 2026 May 02 17:57 | 2026 Apr 30 12:14:27 | 98.7220 | 0.00155 | 9.3693 | 218.5497 | 156.1393 | 14.09156 | – |
| 2026 May 01 17:56 | 2026 Apr 30 12:14:27 | 98.7220 | 0.00155 | 9.3693 | 218.5497 | 156.1393 | 14.09156 | – |
| 2026 Apr 30 17:56 | 2026 Apr 30 12:14:27 | 98.7220 | 0.00155 | 9.3693 | 218.5497 | 156.1393 | 14.09156 | – |
| 2026 Apr 29 17:57 | 2026 Apr 22 18:29:37 | 98.7230 | 0.00152 | 8.8696 | 241.6363 | 156.1393 | 14.09156 | – |
| 2026 Apr 28 17:56 | 2026 Apr 22 18:29:37 | 98.7230 | 0.00152 | 8.8696 | 241.6363 | 156.1393 | 14.09156 | – |
| 2026 Apr 27 17:58 | 2026 Apr 22 18:29:37 | 98.7230 | 0.00152 | 8.8696 | 241.6363 | 156.1393 | 14.09156 | – |
| 2026 Apr 26 17:58 | 2026 Apr 22 18:29:37 | 98.7230 | 0.00152 | 8.8696 | 241.6363 | 156.1393 | 14.09156 | – |
| 2026 Apr 25 17:58 | 2026 Apr 22 18:29:37 | 98.7230 | 0.00152 | 8.8696 | 241.6363 | 156.1393 | 14.09156 | – |
| 2026 Apr 24 17:59 | 2026 Apr 22 18:29:37 | 98.7230 | 0.00152 | 8.8696 | 241.6363 | 156.1393 | 14.09156 | – |
| 2026 Apr 23 17:57 | 2026 Apr 19 12:06:18 | 98.7235 | 0.00151 | 8.6587 | 251.5437 | 156.1393 | 14.09156 | – |
| 2026 Apr 22 17:57 | 2026 Apr 19 12:06:18 | 98.7235 | 0.00151 | 8.6587 | 251.5437 | 156.1393 | 14.09156 | – |
| 2026 Apr 21 17:57 | 2026 Apr 19 12:06:18 | 98.7235 | 0.00151 | 8.6587 | 251.5437 | 156.1393 | 14.09156 | – |
| 2026 Apr 20 17:57 | 2026 Apr 19 12:06:18 | 98.7235 | 0.00151 | 8.6587 | 251.5437 | 156.1393 | 14.09156 | – |
| 2026 Apr 19 17:58 | 2026 Apr 19 12:06:18 | 98.7235 | 0.00151 | 8.6587 | 251.5437 | 156.1393 | 14.09156 | – |
| 2026 Apr 18 17:56 | 2026 Apr 12 11:23:55 | 98.7242 | 0.00150 | 8.2049 | 272.9635 | 156.1393 | 14.09156 | – |
| 2026 Apr 16 17:57 | 2026 Apr 12 11:23:55 | 98.7242 | 0.00150 | 8.2049 | 272.9635 | 156.1393 | 14.09156 | – |
| 2026 Apr 14 17:57 | 2026 Apr 12 11:23:55 | 98.7242 | 0.00150 | 8.2049 | 272.9635 | 156.1393 | 14.09156 | – |
| 2026 Apr 13 17:57 | 2026 Apr 12 11:23:55 | 98.7242 | 0.00150 | 8.2049 | 272.9635 | 156.1393 | 14.09156 | – |
| 2026 Apr 12 17:57 | 2026 Apr 08 11:58:07 | 98.7249 | 0.00151 | 7.9481 | 285.1159 | 156.1393 | 14.09156 | – |
| 2026 Apr 11 17:57 | 2026 Apr 08 11:58:07 | 98.7249 | 0.00151 | 7.9481 | 285.1159 | 156.1393 | 14.09156 | – |
| 2026 Apr 10 17:58 | 2026 Apr 08 11:58:07 | 98.7249 | 0.00151 | 7.9481 | 285.1159 | 156.1393 | 14.09156 | – |
| 2026 Apr 09 18:01 | 2026 Apr 08 11:58:07 | 98.7249 | 0.00151 | 7.9481 | 285.1159 | 156.1393 | 14.09156 | – |
| 2026 Apr 08 17:57 | 2026 Apr 08 11:58:07 | 98.7249 | 0.00151 | 7.9481 | 285.1159 | 156.1393 | 14.09156 | – |